Union, WV

9:49 AM EDT on September 23, 2014 (GMT -0400)
New River Valley | Change Station
CLOSE
Current Station
Airport
Location: Dublin,
Elevation: 2106 ft
Nearby Weather Stations

Elev 2106 ft 37.14 °N, 80.68 °W | Updated 14 minutes ago

Mostly Cloudy
Mostly Cloudy
50 °F
Feels Like 50 °F
N
0
Wind Variable Wind from North

Today
High -- | Low -- °F
--% Chance of Precip.
Yesterday
High -- | Low -- °F
Precip. -- in
7:10 AM 7:17 PM
Waning Crescent, 0% visible
Pressure 30.37 in
Visibility 1.2 miles
Clouds Overcast 300 ft
Dew Point 50 °F
Humidity 100%
Rainfall 0.00 in
Snow Depth Not available.
UV 1 out of 12
Pollen 3.90 out of 12
Air Quality Not available.
Flu Activity Not available.
METAR KPSK 231335Z AUTO 00000KT 1 1/4SM BR OVC003 10/10 A3037 RMK AO2 VIS 1/2V5 T01000100

More Conditions Fewer Conditions

Pressure 30.37 in
Visibility 1.2 miles
Clouds Overcast 300 ft
Dew Point 50 °F
Humidity 100%
Rainfall 0.00 in
Snow Depth Not available.
UV 1 out of 12
Pollen 3.90 out of 12
Air Quality Not available.
Flu Activity Not available.
METAR KPSK 231335Z AUTO 00000KT 1 1/4SM BR OVC003 10/10 A3037 RMK AO2 VIS 1/2V5 T01000100

More Conditions Fewer Conditions

10-Day Weather Forecast

Almanac

Astronomy

Sep. 23, 2014 Rise Set
Actual Time 7:10 AM EDT 7:17 PM EDT
Civil Twilight 6:44 AM EDT 7:43 PM EDT
Nautical Twilight 6:14 AM EDT 8:14 PM EDT
Astronomical Twilight 5:43 AM EDT 8:44 PM EDT
Moon 6:33 AM EDT 6:55 PM EDT
Length of Visible Light 12h 58m
Length of Day
12h 06m
Tomorrow will be 2m 24s shorter.
Waning Crescent, 0% of the Moon is Illuminated
Today
Waning Crescent
Sep 24
New
Oct 1
First Quarter
Oct 8
Full
Oct 15
Last Quarter

Today's Extremes

State Highs State Lows

Community

WunderPhotos

Upload Photos

1,755,669 photos uploaded!

WunderBlogs® & News

Nearby

Snow Depth

Station Depth Elevation
No new snow has been reported.

Earthquake Activity

City Distance Mag. Time & Date
No recent earthquake activity has been reported nearby.
Minimum magnitude displayed is 2.5.

Coastal Water Temperatures

Place Temperature
No Stations Reporting

Nearby Weather Stations